Tiempo atmosférico en la estación meteorológica de Fuencaliente, Ciudad Real (640 m.)



Fecha
DESCASC
Temp. máxima en grados centígrados (hora)
DESCASC
Temp. mínima en grados centígrados (hora)
DESCASC
Temp. media en grados centígrados
DESCASC
Racha de viento máxima en m/sg (hora)
DESCASC
Velocidad máxima media en intervalos de 10 minutos(hora)
DESCASC
Precipitaciones diarias en mm
DESCASC
Precipitaciones de 00:00 a 06:00 en mm
DESCASC
Precipitaciones de 06:00 a 12:00 en mm
DESCASC
Precipitaciones de 12:00 a 18:00 en mm
DESCASC
Precipitaciones de 18:00 a 24:00 en mm
DESCASC
24-05-2020 31.7 (18:10) 15.3 (07:10) 23.5 5.56 (16:30) 2.78 (16:30) 0 0 0 0 0
23-05-2020 32.1 (18:10) 14.5 (05:20) 23.3 5.83 (17:20) 2.78 (14:50) 0 0 0 0 0
22-05-2020 31.3 (19:20) 13.8 (07:10) 22.5 6.11 (15:00) 2.78 (15:10) 0 0 0 0 0
21-05-2020 30.7 (18:40) 13.2 (00:00) 22 5.83 (17:10) 3.06 (14:00) 0 0 0 0 0
20-05-2020 29.3 (18:10) 11.8 (00:00) 20.5 6.67 (17:10) 3.61 (17:00) 0 0 0 0 0
19-05-2020 27.9 (17:30) 11.8 (00:00) 19.8 7.5 (14:20) 3.89 (14:20) 0 0 0 0 0
18-05-2020 25.5 (17:30) 8.7 (00:00) 17.1 7.78 (16:10) 3.61 (16:10) 0 0 0 0 0
17-05-2020 20.4 (18:40) 8.1 (00:00) 14.3 5.56 (15:00) 3.89 (15:00) 0.2 0 0 0.2 0
16-05-2020 19.8 (17:10) 7.6 (00:00) 13.7 6.94 (19:40) 3.33 (19:40) 1.6 0 0 1.2 0.4
15-05-2020 17.8 (18:30) 7.1 (00:00) 12.4 6.39 (18:30) 2.78 (13:40) 0.6 0 0 0.6 0
14-05-2020 12.8 (16:40) 8.6 (00:00) 10.7 10.28 (19:00) 5.28 (01:30) 4.4 2.6 0.6 0.6 0.6
13-05-2020 17.5 (19:00) 9.6 (00:00) 13.6 9.72 (22:10) 5.83 (22:10) 0.4 0 0.2 0 0.2
12-05-2020 12.9 (17:20) 9.3 (00:00) 11.1 8.61 (19:30) 5 (19:30) 7.6 0 0.2 4.2 3.2
11-05-2020 17.7 (17:00) 10.9 (00:00) 14.3 12.78 (14:50) 6.39 (17:00) 5.8 0.4 3 2.4 0
10-05-2020 16.2 (18:40) 9.8 (00:00) 13 8.33 (13:50) 3.89 (03:30) 9.2 4.4 0 3 1.8
09-05-2020 19.9 (16:20) 12 (00:00) 15.9 10 (20:30) 5.56 (19:10) 2 0 0 0 2
08-05-2020 26.6 (16:30) 11.1 (00:00) 18.9 7.78 (15:50) 3.89 (15:20) 0 0 0 0 0
07-05-2020 26.7 (18:40) 13.6 (00:00) 20.2 6.11 (15:50) 2.78 (16:00) 0 0 0 0 0
06-05-2020 27.5 (18:50) 12.5 (00:00) 20 7.5 (14:20) 3.61 (14:20) 0 0 0 0 0
05-05-2020 25.5 (17:40) 11.5 (00:00) 18.5 6.67 (14:20) 2.78 (14:30) 0 0 0 0 0
04-05-2020 29.2 (13:20) 13.7 (00:00) 21.5 13.61 (17:40) 7.22 (15:20) 0 0 0 0 0
03-05-2020 29.2 (18:10) 11.8 (00:00) 20.5 7.78 (16:20) 3.89 (16:40) 0 0 0 0 0
02-05-2020 27.1 (17:20) 10.5 (00:00) 18.8 6.39 (16:00) 3.89 (16:10) 0 0 0 0 0
01-05-2020 22.2 (17:20) 7.5 (00:00) 14.9 8.33 (16:50) 4.72 (16:50) 0 0 0 0 0
30-04-2020 18.6 (18:10) 9.3 (00:00) 14 10.56 (01:20) 4.17 (01:30) 1 0 1 0 0
29-04-2020 19.6 (18:00) 6.6 (00:00) 13.1 7.78 (18:00) 3.61 (12:30) 0 0 0 0 0
28-04-2020 17.3 (17:50) 6.8 (00:00) 12 8.33 (15:30) 3.89 (17:00) 0.2 0.2 0 0 0
27-04-2020 13.3 (17:50) 9.1 (00:00) 11.2 7.78 (14:50) 3.89 (15:00) 9.2 0 0 7.6 1.6

Gráficas

Temp. máximas Temp. mínimas Temp. medias Precipitaciones Rachas de viento máximas Velocidades máximas media en intervalos de 10 minutos

Datos horarios

Fecha y hora oficial Temperatura (ºC) Velocidad del viento (km/h) Dirección del viento Racha (km/h) Dirección de racha Precipitación (mm) Presión (hPa) Tendencia (hPa) Humedad (%)
2020-05-26 23:00:00 23.3 5 Norte 21 Este 0 -- -- 45
2020-05-26 22:00:00 23.9 8 Nordeste 24 Nordeste 0 -- -- 46
2020-05-26 21:00:00 25.2 8 Nordeste 22 Nordeste 0 -- -- 45
2020-05-26 20:00:00 27 9 Nordeste 22 Nordeste 0 -- -- 44
2020-05-26 19:00:00 29.1 6 Nordeste 17 Norte 0 -- -- 37
2020-05-26 18:00:00 29.2 4 Norte 30 Este 0 -- -- 37
2020-05-26 17:00:00 28.3 9 Sudeste 18 Este 0 -- -- 37
2020-05-26 16:00:00 27.7 9 Nordeste 26 Este 0 -- -- 38
2020-05-26 15:00:00 27 11 Nordeste 27 Nordeste 0 -- -- 43
2020-05-26 14:00:00 27.1 13 Nordeste 25 Nordeste 0 -- -- 44
2020-05-26 13:00:00 27.1 9 Nordeste 19 Este 0 -- -- 36
2020-05-26 12:00:00 26.3 4 Sudoeste 9 Sur 0 -- -- 35
2020-05-26 11:00:00 24.3 6 Sur 10 Sur 0 -- -- 39
2020-05-26 10:00:00 22.7 3 Sudoeste 5 Sudoeste 0 -- -- 50
2020-05-26 09:00:00 18.8 0 Calma 5 Este 0 -- -- 77
2020-05-26 08:00:00 14.2 2 Nordeste 4 Este 0 -- -- 89
2020-05-26 07:00:00 14.2 2 Noroeste 12 Norte 0 -- -- 87
2020-05-26 06:00:00 14.4 0 Calma 4 Este 0 -- -- 88
2020-05-26 05:00:00 15.2 0 Calma 4 Nordeste 0 -- -- 86
2020-05-26 04:00:00 16.1 0 Calma 4 Este 0 -- -- 86
2020-05-26 03:00:00 15.7 0 Calma 4 Nordeste 0 -- -- 87
2020-05-26 02:00:00 16.1 0 Calma 2 Sudeste 0 -- -- 82
2020-05-26 01:00:00 18.2 2 Nordeste 15 Norte 0 -- -- 76
2020-05-26 00:00:00 19.8 8 Norte 16 Noroeste 0 -- -- 70
2020-05-25 23:00:00 19.8 3 Norte 17 Norte 0 -- -- 72
2020-05-25 22:00:00 20.2 5 Noroeste 34 Este 0.6 -- -- 75
2020-05-25 21:00:00 23.1 6 Noroeste 26 Oeste 0 -- -- 58
2020-05-25 20:00:00 27.2 6 Sudoeste 17 Sudoeste 0 -- -- 42
2020-05-25 19:00:00 30.5 8 Sudoeste 19 Sudoeste 0 -- -- 33
2020-05-25 18:00:00 30.9 6 Sudoeste 21 Sur 0 -- -- 36
2020-05-25 17:00:00 31.1 10 Oeste 18 Sudoeste 0 -- -- 36
2020-05-25 16:00:00 30.4 5 Oeste 16 Sudeste 0 -- -- 37
2020-05-25 15:00:00 29.6 8 Sudoeste 15 Sur 0 -- -- 39
2020-05-25 14:00:00 28.4 6 Este 17 Sudeste 0 -- -- 39
2020-05-25 13:00:00 27.4 6 Sudeste 13 Sudeste 0 -- -- 40
2020-05-25 12:00:00 26.3 7 Sudeste 13 Sur 0 -- -- 42
2020-05-25 11:00:00 25.1 4 Sudeste 10 Sudeste 0 -- -- 39
2020-05-25 10:00:00 22.6 6 Sudeste 9 Sudeste 0 -- -- 52
2020-05-25 09:00:00 18.9 0 Calma 3 Nordeste 0 -- -- 71
2020-05-25 08:00:00 15.3 0 Calma 4 Oeste 0 -- -- 76
2020-05-25 07:00:00 14.2 0 Calma 3 Nordeste 0 -- -- 75
2020-05-25 06:00:00 14.5 0 Calma 4 Nordeste 0 -- -- 71
2020-05-25 05:00:00 15.2 0 Calma 4 Norte 0 -- -- 67
2020-05-25 04:00:00 16.6 0 Calma 4 Este 0 -- -- 67
2020-05-25 03:00:00 18.3 0 Calma 9 Nordeste 0 -- -- 59
2020-05-25 02:00:00 18.4 3 Nordeste 8 Nordeste 0 -- -- 59
2020-05-25 01:00:00 18.3 0 Calma 7 Nordeste 0 -- -- 66
2020-05-25 00:00:00 19.7 0 Calma 10 Noroeste 0 -- -- 66
2020-05-24 23:00:00 20.3 3 Norte 9 Este 0 -- -- 59
2020-05-24 22:00:00 22.3 2 Norte 5 Nordeste 0 -- -- 56
2020-05-24 21:00:00 25.9 2 Nordeste 10 Sudoeste 0 -- -- 49
2020-05-24 20:00:00 30.7 6 Oeste 11 Oeste 0 -- -- 36
2020-05-24 19:00:00 31.1 6 Sudoeste 17 Sudoeste 0 -- -- 34
2020-05-24 18:00:00 31.4 5 Sudoeste 20 Oeste 0 -- -- 34
2020-05-24 17:00:00 31.3 6 Oeste 20 Sudoeste 0 -- -- 34
2020-05-24 16:00:00 30.8 8 Oeste 17 Sudoeste 0 -- -- 34
2020-05-24 15:00:00 29.9 7 Sudeste 16 Sudeste 0 -- -- 37
2020-05-24 14:00:00 29.3 8 Sudeste 17 Sudoeste 0 -- -- 37
2020-05-24 13:00:00 28.4 6 Sudeste 17 Sur 0 -- -- 39
2020-05-24 12:00:00 27.6 9 Sur 17 Sur 0 -- -- 42
2020-05-24 11:00:00 26.7 8 Sur 13 Sudeste 0 -- -- 43
2020-05-24 10:00:00 24.7 4 Sur 10 Sudoeste 0 -- -- 50
2020-05-24 09:00:00 20.4 0 Calma 3 Este 0 -- -- 71
2020-05-24 08:00:00 15.6 0 Calma 4 Nordeste 0 -- -- 81
2020-05-24 07:00:00 15.5 0 Calma 3 Nordeste 0 -- -- 76
2020-05-24 06:00:00 15.7 0 Calma 2 Nordeste 0 -- -- 73
2020-05-24 05:00:00 16.1 0 Calma 4 Este 0 -- -- 72
2020-05-24 04:00:00 17.5 0 Calma 7 Sudeste 0 -- -- 63
2020-05-24 03:00:00 20.5 4 Norte 12 Norte 0 -- -- 53
2020-05-24 02:00:00 21.7 7 Norte 13 Norte 0 -- -- 43
2020-05-24 01:00:00 21.7 7 Norte 14 Norte 0 -- -- 41
2020-05-24 00:00:00 21.4 5 Norte 12 Noroeste 0 -- -- 41
2020-05-23 23:00:00 22 5 Norte 10 Norte 0 -- -- 43
2020-05-23 22:00:00 23.7 5 Norte 9 Norte 0 -- -- 42
2020-05-23 21:00:00 25.5 4 Norte 7 Noroeste 0 -- -- 48
2020-05-23 20:00:00 31.2 4 Oeste 14 Sudoeste 0 -- -- 33
2020-05-23 19:00:00 31.7 6 Oeste 15 Oeste 0 -- -- 30
2020-05-23 18:00:00 31.8 4 Noroeste 21 Sudoeste 0 -- -- 28
2020-05-23 17:00:00 32 6 Sudoeste 18 Noroeste 0 -- -- 27
2020-05-23 16:00:00 31.8 7 Sudoeste 19 Oeste 0 -- -- 29
2020-05-23 15:00:00 30.9 8 Sudoeste 19 Sur 0 -- -- 33
2020-05-23 14:00:00 30.3 6 Sudeste 14 Sudeste 0 -- -- 36
2020-05-23 13:00:00 29 4 Sudeste 12 Sudeste 0 -- -- 39
2020-05-23 12:00:00 28.2 6 Sur 12 Sur 0 -- -- 41
2020-05-23 11:00:00 27.6 6 Sur 9 Sudeste 0 -- -- 47
2020-05-23 10:00:00 25.1 0 Calma 2 Sudeste 0 -- -- 54
2020-05-23 09:00:00 19.4 0 Calma 5 Nordeste 0 -- -- 76
2020-05-23 08:00:00 15.9 0 Calma 3 Nordeste 0 -- -- 82
2020-05-23 07:00:00 15.6 0 Calma 14 Norte 0 -- -- 78
2020-05-23 06:00:00 15.5 2 Norte 10 Norte 0 -- -- 69
2020-05-23 05:00:00 14.8 0 Calma 3 Nordeste 0 -- -- 76
2020-05-23 04:00:00 15.4 0 Calma 3 Nordeste 0 -- -- 73
2020-05-23 03:00:00 15.9 0 Calma 3 Nordeste 0 -- -- 68
2020-05-23 02:00:00 16.1 0 Calma 4 Este 0 -- -- 69
2020-05-23 01:00:00 16.5 0 Calma 3 Nordeste 0 -- -- 69
2020-05-23 00:00:00 17.1 0 Calma 4 Nordeste 0 -- -- 72
2020-05-22 23:00:00 18.3 0 Calma 2 Nordeste 0 -- -- 66
2020-05-22 22:00:00 20.7 0 Calma 8 Nordeste 0 -- -- 62
2020-05-22 21:00:00 24.6 0 Calma 5 Sudoeste 0 -- -- 53
2020-05-22 20:00:00 29.7 3 Oeste 16 Oeste 0 -- -- 36
2020-05-22 19:00:00 31.1 5 Sudoeste 15 Sudoeste 0 -- -- 28
2020-05-22 18:00:00 30.6 7 Sur 18 Sudeste 0 -- -- 28
2020-05-22 17:00:00 30.7 6 Sur 18 Oeste 0 -- -- 28
2020-05-22 16:00:00 30.6 6 Sur 19 Sudoeste 0 -- -- 30
2020-05-22 15:00:00 30.3 10 Sudoeste 22 Sudoeste 0 -- -- 36
2020-05-22 14:00:00 29.5 5 Este 18 Sudoeste 0 -- -- 33
2020-05-22 13:00:00 29.1 4 Sur 12 Sudeste 0 -- -- 33
2020-05-22 12:00:00 28.1 7 Sur 14 Sur 0 -- -- 43
2020-05-22 11:00:00 27.2 3 Sur 7 Sur 0 -- -- 50
2020-05-22 10:00:00 24.9 2 Sudoeste 4 Sur 0 -- -- 53
2020-05-22 09:00:00 19.8 0 Calma 2 Este 0 -- -- 77
2020-05-22 08:00:00 14.4 0 Calma 2 Nordeste 0 -- -- 88
2020-05-22 07:00:00 13.9 0 Calma 3 Nordeste 0 -- -- 86
2020-05-22 06:00:00 14.3 0 Calma 3 Nordeste 0 -- -- 84
2020-05-22 05:00:00 14.6 0 Calma 3 Nordeste 0 -- -- 81
2020-05-22 04:00:00 15.5 0 Calma 6 Nordeste 0 -- -- 79
2020-05-22 03:00:00 15.8 2 Nordeste 5 Nordeste 0 -- -- 79
2020-05-22 02:00:00 16.3 0 Calma 4 Nordeste 0 -- -- 77
2020-05-22 01:00:00 16.4 0 Calma 8 Sudoeste 0 -- -- 74
2020-05-22 00:00:00 17.2 2 Norte 6 Sudoeste 0 -- -- 71
2020-05-21 23:00:00 18.1 3 Nordeste 6 Este 0 -- -- 69
2020-05-21 22:00:00 20.3 0 Calma 5 Este 0 -- -- 64
2020-05-21 21:00:00 24.1 0 Calma 5 Sudoeste 0 -- -- 56
2020-05-21 20:00:00 29.5 4 Oeste 13 Sudoeste 0 -- -- 36
2020-05-21 19:00:00 30.5 6 Sudoeste 18 Sudoeste 0 -- -- 34
2020-05-21 18:00:00 30 7 Sur 21 Sudoeste 0 -- -- 34
2020-05-21 17:00:00 29.9 10 Sur 19 Sudoeste 0 -- -- 34
2020-05-21 16:00:00 29.5 7 Sudoeste 14 Sudoeste 0 -- -- 33
2020-05-21 15:00:00 28.6 5 Este 19 Sudoeste 0 -- -- 33
2020-05-21 14:00:00 28.5 11 Sudoeste 19 Sudoeste 0 -- -- 35
2020-05-21 13:00:00 28 6 Sur 15 Sur 0 -- -- 42
2020-05-21 12:00:00 27.2 7 Sudeste 12 Sur 0 -- -- 43
2020-05-21 11:00:00 25.4 6 Sudeste 11 Sudeste 0 -- -- 51
2020-05-21 10:00:00 24.5 4 Sudoeste 7 Noroeste 0 -- -- 57
2020-05-21 09:00:00 19 0 Calma 3 Este 0 -- -- 72
2020-05-21 08:00:00 13.6 0 Calma 5 Este 0 -- -- 83
2020-05-21 07:00:00 13.6 0 Calma 5 Nordeste 0 -- -- 78
2020-05-21 06:00:00 16.7 2 Noroeste 12 Norte 0 -- -- 66
2020-05-21 05:00:00 17 5 Noroeste 11 Norte 0 -- -- 61
2020-05-21 04:00:00 18.5 4 Norte 10 Norte 0 -- -- 56
2020-05-21 03:00:00 15 0 Calma 5 Nordeste 0 -- -- 67
2020-05-21 02:00:00 15 3 Norte 8 Norte 0 -- -- 68
2020-05-21 01:00:00 15.6 0 Calma 4 Este 0 -- -- 66
2020-05-21 00:00:00 17.6 0 Calma 7 Norte 0 -- -- 61
2020-05-20 23:00:00 19.3 4 Norte 8 Norte 0 -- -- 50
2020-05-20 22:00:00 21.1 4 Norte 12 Norte 0 -- -- 48
2020-05-20 21:00:00 23.1 3 Norte 6 Nordeste 0 -- -- 47
2020-05-20 20:00:00 27.7 2 Nordeste 16 Sudoeste 0 -- -- 39
2020-05-20 19:00:00 28.9 9 Sudoeste 21 Oeste 0 -- -- 29
2020-05-20 18:00:00 29.1 9 Oeste 24 Sudoeste 0 -- -- 28
2020-05-20 17:00:00 28.9 13 Oeste 23 Sudoeste 0 -- -- 30
2020-05-20 16:00:00 28.4 11 Sudoeste 22 Sudoeste 0 -- -- 32
2020-05-20 15:00:00 28 5 Sudeste 14 Oeste 0 -- -- 36
2020-05-20 14:00:00 27.8 10 Oeste 22 Sudoeste 0 -- -- 36
2020-05-20 13:00:00 27.3 6 Este 12 Sudoeste 0 -- -- 37
2020-05-20 12:00:00 26.8 3 Sudeste 12 Sur 0 -- -- 38
2020-05-20 11:00:00 24.9 6 Sur 10 Sudeste 0 -- -- 49
2020-05-20 10:00:00 23.1 0 Calma 2 Sudeste 0 -- -- 51
2020-05-20 09:00:00 17.4 0 Calma 4 Nordeste 0 -- -- 76
2020-05-20 08:00:00 12.3 0 Calma 4 Nordeste 0 -- -- 87
2020-05-20 07:00:00 11.9 0 Calma 3 Nordeste 0 -- -- 83
2020-05-20 06:00:00 12.4 0 Calma 2 Norte 0 -- -- 79
2020-05-20 05:00:00 12.5 0 Calma 4 Este 0 -- -- 79
2020-05-20 04:00:00 12.6 0 Calma 2 Este 0 -- -- 78
2020-05-20 03:00:00 12.8 0 Calma 3 Este 0 -- -- 76
2020-05-20 02:00:00 13.2 0 Calma 2 Nordeste 0 -- -- 74
2020-05-20 01:00:00 13.9 0 Calma 5 Este 0 -- -- 74
2020-05-20 00:00:00 14.8 0 Calma 3 Nordeste 0 -- -- 69
2020-05-19 23:00:00 15.6 0 Calma 8 Este 0 -- -- 67
2020-05-19 22:00:00 17.8 4 Nordeste 6 Nordeste 0 -- -- 59
2020-05-19 21:00:00 21.5 3 Norte 5 Oeste 0 -- -- 57
2020-05-19 20:00:00 24.7 0 Calma 12 Oeste 0 -- -- 46
2020-05-19 19:00:00 27.7 6 Oeste 18 Sudoeste 0 -- -- 32
2020-05-19 18:00:00 27.7 9 Sudoeste 19 Oeste 0 -- -- 31
2020-05-19 17:00:00 27.3 8 Oeste 23 Oeste 0 -- -- 35
2020-05-19 16:00:00 27.4 11 Sudoeste 24 Sudoeste 0 -- -- 37
2020-05-19 15:00:00 26.7 13 Sudoeste 27 Sudoeste 0 -- -- 39
2020-05-19 14:00:00 26.1 12 Sudoeste 22 Sudoeste 0 -- -- 35
2020-05-19 13:00:00 25.8 8 Sudoeste 15 Sudoeste 0 -- -- 42
2020-05-19 12:00:00 24.8 4 Sudeste 12 Sur 0 -- -- 44
2020-05-19 11:00:00 23.7 4 Sur 7 Sur 0 -- -- 45
2020-05-19 10:00:00 22 2 Sur 4 Sudeste 0 -- -- 54
2020-05-19 09:00:00 17 0 Calma 4 Este 0 -- -- 73
2020-05-19 08:00:00 12.3 3 Nordeste 11 Nordeste 0 -- -- 77
2020-05-19 07:00:00 12 0 Calma 9 Norte 0 -- -- 78
2020-05-19 06:00:00 12 0 Calma 5 Este 0 -- -- 77
2020-05-19 05:00:00 13.2 2 Nordeste 9 Norte 0 -- -- 72
2020-05-19 04:00:00 16 5 Norte 13 Nordeste 0 -- -- 60
2020-05-19 03:00:00 16.1 4 Norte 10 Noroeste 0 -- -- 65
2020-05-19 02:00:00 16.2 5 Norte 9 Norte 0 -- -- 62
2020-05-19 01:00:00 16 3 Nordeste 8 Norte 0 -- -- 63
2020-05-19 00:00:00 16 0 Calma 9 Nordeste 0 -- -- 59
2020-05-18 23:00:00 17.1 5 Nordeste 9 Nordeste 0 -- -- 57
2020-05-18 22:00:00 17.6 3 Norte 6 Norte 0 -- -- 59
2020-05-18 21:00:00 20.2 2 Nordeste 6 Oeste 0 -- -- 55
2020-05-18 20:00:00 25 4 Oeste 17 Noroeste 0 -- -- 40
2020-05-18 19:00:00 25.4 5 Oeste 18 Oeste 0 -- -- 37
2020-05-18 18:00:00 25.5 7 Oeste 19 Sudoeste 0 -- -- 38
2020-05-18 17:00:00 25.2 7 Oeste 28 Oeste 0 -- -- 41
2020-05-18 16:00:00 24.1 7 Oeste 23 Sudoeste 0 -- -- 43
2020-05-18 15:00:00 23.3 10 Sudoeste 21 Sudoeste 0 -- -- 47
2020-05-18 14:00:00 23.2 11 Sudoeste 22 Este 0 -- -- 46
2020-05-18 13:00:00 22.1 4 Sudeste 15 Sur 0 -- -- 46
2020-05-18 12:00:00 21.7 6 Sur 14 Sudoeste 0 -- -- 50
2020-05-18 11:00:00 20 5 Sur 8 Sur 0 -- -- 61
2020-05-18 10:00:00 17.9 4 Sur 8 Sur 0 -- -- 73
2020-05-18 09:00:00 13.6 0 Calma 2 Este 0 -- -- 88
2020-05-18 08:00:00 9 0 Calma 3 Nordeste 0 -- -- 96
2020-05-18 07:00:00 8.8 0 Calma 2 Este 0 -- -- 95
2020-05-18 06:00:00 8.9 2 Nordeste 6 Sudoeste 0 -- -- 95
2020-05-18 05:00:00 9.2 0 Calma 5 Sudoeste 0 -- -- 94
2020-05-18 04:00:00 9.7 2 Nordeste 6 Este 0 -- -- 94
2020-05-18 03:00:00 10.2 0 Calma 6 Nordeste 0 -- -- 93
2020-05-18 02:00:00 10.8 0 Calma 4 Nordeste 0 -- -- 92
2020-05-18 01:00:00 11.5 0 Calma 3 Nordeste 0 -- -- 90
2020-05-18 00:00:00 12.7 0 Calma 4 Nordeste 0 -- -- 87
2020-05-17 23:00:00 13.9 2 Nordeste 4 Nordeste 0 -- -- 86
2020-05-17 22:00:00 15.1 0 Calma 8 Nordeste 0 -- -- 81
2020-05-17 21:00:00 17.2 0 Calma 9 Nordeste 0 -- -- 74
2020-05-17 20:00:00 19.4 4 Este 12 Sudoeste 0 -- -- 63
2020-05-17 19:00:00 20 7 Sudeste 17 Sudeste 0 -- -- 61
2020-05-17 18:00:00 19.2 4 Sur 9 Sudoeste 0 -- -- 65
2020-05-17 17:00:00 17.5 3 Sudeste 14 Sudoeste 0 -- -- 66
2020-05-17 16:00:00 17.1 8 Sur 20 Sudoeste 0 -- -- 71
2020-05-17 15:00:00 18.6 14 Sudoeste 20 Sudoeste 0 -- -- 64
2020-05-17 14:00:00 18.3 9 Sudoeste 16 Sudoeste 0.2 -- -- 71
2020-05-17 13:00:00 18.4 6 Sudeste 13 Sur 0 -- -- 70
2020-05-17 12:00:00 17 5 Sudeste 10 Sur 0 -- -- 77
2020-05-17 11:00:00 13.6 3 Sur 9 Sudoeste 0 -- -- 90
2020-05-17 10:00:00 12.6 4 Sur 7 Sur 0 -- -- 93
2020-05-17 09:00:00 11.4 4 Sur 7 Sur 0 -- -- 97
2020-05-17 08:00:00 10 3 Sudeste 12 Norte 0 -- -- 94
2020-05-17 07:00:00 9.5 3 Norte 6 Norte 0 -- -- 96
2020-05-17 06:00:00 8.8 0 Calma 3 Nordeste 0 -- -- 96
2020-05-17 05:00:00 8.2 0 Calma 3 Norte 0 -- -- 93
2020-05-17 04:00:00 8.9 2 Nordeste 4 Nordeste 0 -- -- 93
2020-05-17 03:00:00 9.7 0 Calma 8 Nordeste 0 -- -- 92
2020-05-17 02:00:00 10.9 2 Nordeste 6 Nordeste 0 -- -- 90
2020-05-17 01:00:00 12.4 0 Calma 3 Norte 0 -- -- 91
2020-05-17 00:00:00 12.7 0 Calma 7 Este 0 -- -- 88
2020-05-16 23:00:00 13 0 Calma 7 Nordeste 0 -- -- 88
2020-05-16 22:00:00 13.6 4 Nordeste 8 Nordeste 0 -- -- 85
2020-05-16 21:00:00 14.1 3 Norte 9 Este 0 -- -- 82
2020-05-16 20:00:00 14.9 8 Nordeste 25 Este 0.4 -- -- 80
2020-05-16 19:00:00 18.2 0 Calma 14 Sudoeste 0 -- -- 63
2020-05-16 18:00:00 17.9 6 Sur 18 Sudoeste 0 -- -- 62
2020-05-16 17:00:00 19.3 6 Sudoeste 14 Este 0 -- -- 58
2020-05-16 16:00:00 17.7 6 Sudeste 18 Este 0 -- -- 63
2020-05-16 15:00:00 18.2 5 Sudeste 15 Nordeste 0 -- -- 63
2020-05-16 14:00:00 16.9 10 Sudoeste 14 Sudoeste 0.6 -- -- 77
2020-05-16 13:00:00 14.5 0 Calma 13 Este 0.6 -- -- 81
2020-05-16 12:00:00 14.9 0 Calma 4 Sur 0 -- -- 72
2020-05-16 11:00:00 14.2 0 Calma 10 Sudeste 0 -- -- 78
2020-05-16 10:00:00 12.9 4 Sur 8 Nordeste 0 -- -- 87
2020-05-16 09:00:00 9 0 Calma 3 Nordeste 0 -- -- 96
2020-05-16 08:00:00 7.9 0 Calma 11 Norte 0 -- -- 94
2020-05-16 07:00:00 7.6 0 Calma 4 Nordeste 0 -- -- 94
2020-05-16 06:00:00 7.8 4 Norte 10 Norte 0 -- -- 93
2020-05-16 05:00:00 7.7 0 Calma 4 Nordeste 0 -- -- 93
2020-05-16 04:00:00 8 0 Calma 4 Nordeste 0 -- -- 93
2020-05-16 03:00:00 8.3 0 Calma 5 Este 0 -- -- 92
2020-05-16 02:00:00 8.9 0 Calma 4 Sudeste 0 -- -- 90
2020-05-16 01:00:00 9.3 0 Calma 5 Norte 0 -- -- 89
2020-05-16 00:00:00 10.2 0 Calma 5 Sudeste 0 -- -- 85
2020-05-15 23:00:00 11.7 2 Este 9 Norte 0 -- -- 81
2020-05-15 22:00:00 12 5 Nordeste 9 Nordeste 0 -- -- 80
2020-05-15 21:00:00 15 5 Oeste 13 Noroeste 0 -- -- 67
2020-05-15 20:00:00 17.5 4 Oeste 17 Oeste 0 -- -- 57
2020-05-15 19:00:00 17.5 8 Oeste 23 Oeste 0 -- -- 58
2020-05-15 18:00:00 17.4 8 Noroeste 19 Oeste 0 -- -- 64
2020-05-15 17:00:00 15.3 5 Oeste 19 Oeste 0 -- -- 69
2020-05-15 16:00:00 13.2 4 Sudoeste 9 Oeste 0.2 -- -- 77
2020-05-15 15:00:00 11.1 4 Oeste 12 Sur 0 -- -- 86
2020-05-15 14:00:00 11.3 6 Sudeste 22 Este 0.4 -- -- 83
2020-05-15 13:00:00 14.8 8 Nordeste 21 Este 0 -- -- 66
2020-05-15 12:00:00 14.8 10 Este 21 Este 0 -- -- 62
2020-05-15 11:00:00 14.2 4 Oeste 12 Norte 0 -- -- 74
2020-05-15 10:00:00 12.6 3 Oeste 9 Noroeste 0 -- -- 80
2020-05-15 09:00:00 9.4 0 Calma 3 Noroeste 0 -- -- 97
2020-05-15 08:00:00 7.6 0 Calma 9 Norte 0 -- -- 95
2020-05-15 07:00:00 8.1 5 Norte 10 Norte 0 -- -- 95
2020-05-15 06:00:00 8.1 0 Calma 4 Noroeste 0 -- -- 96
2020-05-15 05:00:00 8 0 Calma 4 Nordeste 0 -- -- 96
2020-05-15 04:00:00 7.8 0 Calma 5 Sudoeste 0 -- -- 96
2020-05-15 03:00:00 7.3 0 Calma 5 Nordeste 0 -- -- 95
2020-05-15 02:00:00 7.4 0 Calma 4 Sudoeste 0 -- -- 93
2020-05-15 01:00:00 8.5 2 Nordeste 5 Este 0 -- -- 91
2020-05-15 00:00:00 10 3 Sur 13 Sudoeste 0 -- -- 89
2020-05-14 23:00:00 10.5 6 Sur 31 Sudoeste 0 -- -- 87
2020-05-14 22:00:00 10.7 4 Sudeste 17 Sudoeste 0 -- -- 88
2020-05-14 21:00:00 10.9 8 Sur 23 Sudeste 0.2 -- -- 87
2020-05-14 20:00:00 11.6 6 Sur 25 Oeste 0.2 -- -- 89
2020-05-14 19:00:00 12.4 18 Sudoeste 37 Sudeste 0.2 -- -- 79
2020-05-14 18:00:00 12.7 9 Sudoeste 21 Oeste 0.2 -- -- 81
2020-05-14 17:00:00 12.5 9 Sudoeste 26 Oeste 0.2 -- -- 82
2020-05-14 16:00:00 11.4 5 Sur 24 Sudoeste 0 -- -- 85
2020-05-14 15:00:00 11.3 11 Sur 34 Sudeste 0.2 -- -- 78
2020-05-14 14:00:00 10.5 10 Sur 28 Oeste 0 -- -- 86
2020-05-14 13:00:00 10.5 14 Sudoeste 27 Sudeste 0 -- -- 81
2020-05-14 12:00:00 10 8 Sur 21 Sur 0.2 -- -- 91
2020-05-14 11:00:00 9.6 5 Sur 18 Sudeste 0 -- -- 90
2020-05-14 10:00:00 9.2 8 Sudeste 17 Sudeste 0 -- -- 91
2020-05-14 09:00:00 8.9 3 Sudeste 13 Sur 0.4 -- -- 93
2020-05-14 08:00:00 8.8 3 Sudeste 9 Sur 0 -- -- 91
2020-05-14 07:00:00 8.7 3 Sudeste 10 Sur 0 -- -- 90
2020-05-14 06:00:00 8.7 6 Sur 16 Sudoeste 0 -- -- 87
2020-05-14 05:00:00 8.7 7 Sur 20 Sur 0 -- -- 86
2020-05-14 04:00:00 9 3 Este 28 Sur 0 -- -- 88
2020-05-14 03:00:00 9.1 12 Sudoeste 28 Sudoeste 0.4 -- -- 89
2020-05-14 02:00:00 9.4 15 Sudoeste 33 Sudoeste -- -- -- 89
2020-05-14 01:00:00 10.7 11 Sudoeste 24 Sudoeste 0.2 -- -- 85
2020-05-14 00:00:00 11.6 6 Sudoeste 13 Sudoeste 0 -- -- 88
2020-05-13 23:00:00 11.8 9 Sudoeste 35 Sudoeste 0 -- -- 87
2020-05-13 22:00:00 13 17 Sudoeste 32 Sudoeste 0.2 -- -- 80
2020-05-13 21:00:00 14.6 2 Nordeste 4 Nordeste 0 -- -- 75
2020-05-13 20:00:00 15.9 2 Sudeste 13 Sur 0 -- -- 64
2020-05-13 19:00:00 17.5 6 Sudoeste 17 Sur 0 -- -- 53
2020-05-13 18:00:00 16.7 7 Sur 17 Este 0 -- -- 55
2020-05-13 17:00:00 16.5 8 Sudoeste 28 Sudeste 0 -- -- 58
2020-05-13 16:00:00 16 9 Sudeste 22 Sudeste 0 -- -- 61
2020-05-13 15:00:00 15 9 Sur 17 Sur 0 -- -- 64
2020-05-13 14:00:00 14 8 Sudoeste 20 Este 0 -- -- 72
2020-05-13 13:00:00 12.1 4 Sudeste 12 Sudoeste 0 -- -- 78
2020-05-13 12:00:00 11.5 4 Sur 12 Sudeste 0 -- -- 83
2020-05-13 11:00:00 11.5 7 Sudeste 13 Sur 0 -- -- 85
2020-05-13 10:00:00 10 4 Sudeste 13 Sudoeste 0 -- -- 88
2020-05-13 09:00:00 9.8 4 Sur 9 Este 0 -- -- 92
2020-05-13 08:00:00 9.6 0 Calma 9 Sudeste 0.2 -- -- 92
2020-05-13 07:00:00 9.6 4 Sur 10 Sudeste 0 -- -- 89
2020-05-13 06:00:00 9.6 0 Calma 9 Sur 0 -- -- 90
2020-05-13 05:00:00 9.8 6 Sur 15 Sudeste 0 -- -- 90
2020-05-13 04:00:00 10.2 9 Sudoeste 25 Sudoeste 0 -- -- 91
2020-05-13 03:00:00 10.2 4 Sur 12 Sudeste 0 -- -- 93
2020-05-13 02:00:00 10.1 3 Sudeste 9 Sudeste 0 -- -- 93
2020-05-13 01:00:00 10.2 3 Sudeste 10 Este 0 -- -- 92
2020-05-13 00:00:00 10.1 0 Calma 9 Nordeste 0 -- -- 92
2020-05-12 23:00:00 10.1 3 Sudeste 20 Sur 0 -- -- 91
2020-05-12 22:00:00 10.1 3 Sudeste 13 Sur 0 -- -- 92
2020-05-12 21:00:00 10.3 3 Nordeste 16 Oeste 1 -- -- 89
2020-05-12 20:00:00 10.3 11 Sudoeste 31 Sudoeste 1.4 -- -- 86
2020-05-12 19:00:00 12.1 4 Sur 12 Sudeste 0.8 -- -- 82
2020-05-12 18:00:00 12.7 6 Sur 16 Sur 0 -- -- 77
2020-05-12 17:00:00 12.4 5 Sur 13 Sur 0 -- -- 83
2020-05-12 16:00:00 11.4 5 Sur 12 Sudoeste 0 -- -- 90
2020-05-12 15:00:00 10.2 5 Sudeste 27 Sudoeste 0.2 -- -- 93
2020-05-12 14:00:00 10 5 Nordeste 17 Norte 2.4 -- -- 91
2020-05-12 13:00:00 9.9 7 Sur 21 Sudeste 1.6 -- -- 93
2020-05-12 12:00:00 10.8 10 Sudeste 22 Sudeste 0.2 -- -- 89
2020-05-12 11:00:00 10.9 10 Sur 24 Sur 0 -- -- 87
2020-05-12 10:00:00 11.2 10 Sur 23 Sur 0 -- -- 89
2020-05-12 09:00:00 10.8 4 Sur 12 Sudeste 0 -- -- 93
2020-05-12 08:00:00 9.9 2 Oeste 5 Nordeste 0 -- -- 95
2020-05-12 07:00:00 9.4 0 Calma 6 Sudoeste 0 -- -- 94
2020-05-12 06:00:00 9.5 0 Calma 7 Nordeste 0 -- -- 94
2020-05-12 05:00:00 9.5 0 Calma 4 Nordeste 0 -- -- 94
2020-05-12 04:00:00 9.3 2 Nordeste 4 Sudoeste 0 -- -- 93
2020-05-12 03:00:00 9.7 0 Calma 4 Nordeste 0 -- -- 92
2020-05-12 02:00:00 10.2 2 Nordeste 4 Nordeste 0 -- -- 90
2020-05-12 01:00:00 11 0 Calma 5 Nordeste 0 -- -- 88
2020-05-12 00:00:00 11.9 0 Calma 13 Este 0 -- -- 84
2020-05-11 23:00:00 12 2 Nordeste 7 Nordeste 0 -- -- 82
2020-05-11 22:00:00 12.9 0 Calma 6 Sudeste 0 -- -- 83
2020-05-11 21:00:00 14.7 4 Sudoeste 27 Sudoeste 0 -- -- 71
2020-05-11 20:00:00 15.7 13 Sudoeste 27 Oeste 0 -- -- 66
2020-05-11 19:00:00 16.4 15 Sudoeste 31 Sudoeste 0 -- -- 62
2020-05-11 18:00:00 16.9 23 Sudoeste 40 Sudoeste 0 -- -- 61
2020-05-11 17:00:00 17.7 23 Sudoeste 39 Sudoeste 0 -- -- 65
2020-05-11 16:00:00 16.2 15 Sudoeste 46 Sur 0 -- -- 71
2020-05-11 15:00:00 15.3 14 Sudoeste 46 Sur 0 -- -- 81
2020-05-11 14:00:00 13.7 10 Sur 28 Sudoeste 0.4 -- -- 89
2020-05-11 13:00:00 13.1 8 Sudoeste 26 Sudoeste 2 -- -- 88
2020-05-11 12:00:00 11.9 12 Sur 36 Sudeste 2.8 -- -- 93
2020-05-11 11:00:00 12 10 Sur 26 Sudeste 0.2 -- -- 90
2020-05-11 10:00:00 11.5 7 Sur 19 Sudeste 0 -- -- 94
2020-05-11 09:00:00 11.1 5 Sudeste 14 Sudeste 0 -- -- 91
2020-05-11 08:00:00 10.9 5 Sur 13 Sudeste 0 -- -- 90
2020-05-11 07:00:00 10.9 4 Sudeste 19 Sudoeste 0 -- -- 88
2020-05-11 06:00:00 11 13 Sudoeste 31 Sudoeste 0 -- -- 88
2020-05-11 05:00:00 11.4 15 Sudoeste 29 Sudoeste 0 -- -- 90
2020-05-11 04:00:00 11.5 13 Sudoeste 27 Sudoeste 0.4 -- -- 91
2020-05-11 03:00:00 11.7 10 Sur 28 Sudoeste 0 -- -- 88
2020-05-11 02:00:00 11.9 9 Sur 18 Sur 0 -- -- 87
2020-05-11 01:00:00 12.1 9 Oeste 26 Oeste 0 -- -- 84
2020-05-11 00:00:00 11.8 7 Sudoeste 25 Oeste 0 -- -- 83
2020-05-10 23:00:00 12.5 7 Oeste 19 Sudoeste 0 -- -- 82
2020-05-10 22:00:00 12 3 Sudoeste 22 Sudoeste 0.4 -- -- 87
2020-05-10 21:00:00 12.6 3 Norte 24 Oeste 0 -- -- 83
2020-05-10 20:00:00 13.2 2 Sudoeste 27 Oeste 1.2 -- -- 81
2020-05-10 19:00:00 15.5 5 Oeste 22 Noroeste 0.2 -- -- 65
2020-05-10 18:00:00 15.1 6 Norte 30 Oeste 1 -- -- 65
2020-05-10 17:00:00 16.1 4 Oeste 18 Noroeste 0.6 -- -- 70
2020-05-10 16:00:00 14.9 4 Este 22 Sudoeste 0.2 -- -- 71
2020-05-10 15:00:00 13.4 8 Sudeste 23 Sudoeste 0 -- -- 73
2020-05-10 14:00:00 11.9 11 Sudoeste 30 Sudoeste 1 -- -- 80
2020-05-10 13:00:00 14.3 6 Sur 29 Sur 0.2 -- -- 67
2020-05-10 12:00:00 13.4 6 Sudoeste 27 Oeste 0 -- -- 75
2020-05-10 11:00:00 12.9 5 Sur 19 Oeste 0 -- -- 77
2020-05-10 10:00:00 12.2 4 Oeste 21 Oeste 0 -- -- 79
2020-05-10 09:00:00 10.3 7 Oeste 17 Sudoeste 0 -- -- 86
2020-05-10 08:00:00 9.9 0 Calma 13 Sudoeste 0 -- -- 91
2020-05-10 07:00:00 10 0 Calma 8 Este 0 -- -- 93
2020-05-10 06:00:00 10 4 Nordeste 7 Norte 0 -- -- 92
2020-05-10 05:00:00 10.1 0 Calma 8 Norte 0.2 -- -- 91
2020-05-10 04:00:00 10.4 3 Nordeste 30 Sudoeste 0.6 -- -- 90
2020-05-10 03:00:00 11.1 3 Oeste 12 Oeste 1.8 -- -- 89
2020-05-10 02:00:00 11.6 6 Sudoeste 14 Sudeste 1.8 -- -- 91
2020-05-10 01:00:00 11.9 7 Sur 22 Sudoeste 0 -- -- 90
2020-05-10 00:00:00 12 9 Sudoeste 20 Sudoeste 0.4 -- -- 85
2020-05-09 23:00:00 12.5 4 Noroeste 27 Sudoeste 1.6 -- -- 83
2020-05-09 22:00:00 13.9 12 Oeste 33 Oeste 0 -- -- 67
2020-05-09 21:00:00 15.5 14 Sudoeste 36 Sudoeste 0 -- -- 60
2020-05-09 20:00:00 16.7 13 Sudoeste 35 Sudoeste 0 -- -- 58
2020-05-09 19:00:00 18.4 18 Sudoeste 33 Oeste 0 -- -- 52
2020-05-09 18:00:00 18.6 15 Sudoeste 31 Sudoeste 0 -- -- 52
2020-05-09 17:00:00 19.7 12 Sudoeste 27 Sudoeste 0 -- -- 55
2020-05-09 16:00:00 19.3 12 Sur 25 Sur 0 -- -- 54
2020-05-09 15:00:00 19.1 12 Sudoeste 27 Sudoeste 0 -- -- 52
2020-05-09 14:00:00 17.9 11 Sur 27 Sudeste 0 -- -- 57
2020-05-09 13:00:00 17 13 Sur 27 Sur 0 -- -- 60
2020-05-09 12:00:00 16.8 11 Sur 26 Sur 0 -- -- 63
2020-05-09 11:00:00 15 7 Sudoeste 28 Sudoeste 0 -- -- 68
2020-05-09 10:00:00 13.7 10 Sudoeste 19 Oeste 0 -- -- 76
2020-05-09 09:00:00 13.3 6 Sudoeste 20 Sudoeste 0 -- -- 80
2020-05-09 08:00:00 13.3 13 Sudoeste 21 Sudoeste 0 -- -- 82
2020-05-09 07:00:00 13.6 7 Sur 20 Sudoeste 0 -- -- 83
2020-05-09 06:00:00 13.7 5 Sur 10 Sur 0 -- -- 84
2020-05-09 05:00:00 14.3 5 Sudeste 15 Sudeste 0 -- -- 81
2020-05-09 04:00:00 15 6 Sudoeste 22 Oeste 0 -- -- 77
2020-05-09 03:00:00 15 9 Sudoeste 24 Sudoeste 0 -- -- 77
2020-05-09 02:00:00 15.8 10 Sudoeste 22 Sudoeste 0 -- -- 74
2020-05-09 01:00:00 16.9 4 Sudoeste 18 Sudoeste 0 -- -- 70
2020-05-09 00:00:00 18.1 8 Sudoeste 25 Oeste 0 -- -- 70
2020-05-08 23:00:00 19.5 9 Oeste 24 Oeste 0 -- -- 59
2020-05-08 22:00:00 20.5 13 Oeste 27 Oeste 0 -- -- 52
2020-05-08 21:00:00 21.6 9 Sudoeste 20 Sudoeste 0 -- -- 48
2020-05-08 20:00:00 24.5 7 Sudoeste 24 Sudoeste 0 -- -- 41
2020-05-08 19:00:00 25.6 13 Sudoeste 26 Sudoeste 0 -- -- 37
2020-05-08 18:00:00 26.4 12 Sudoeste 24 Sudoeste 0 -- -- 38
2020-05-08 17:00:00 26.4 9 Sudoeste 25 Sudoeste 0 -- -- 40
2020-05-08 16:00:00 26.1 10 Sudoeste 28 Sudoeste 0 -- -- 41
2020-05-08 15:00:00 25.7 11 Sudoeste 22 Sudoeste 0 -- -- 44
2020-05-08 14:00:00 24.7 6 Sudeste 14 Sur 0 -- -- 40
2020-05-08 13:00:00 24.3 6 Sudeste 14 Sur 0 -- -- 43
2020-05-08 12:00:00 23.1 7 Sur 14 Sudeste 0 -- -- 49
2020-05-08 11:00:00 22 5 Sudeste 12 Sudeste 0 -- -- 53
2020-05-08 10:00:00 21.1 3 Sudeste 8 Noroeste 0 -- -- 55
2020-05-08 09:00:00 16.3 0 Calma 9 Norte 0 -- -- 80
2020-05-08 08:00:00 12.7 3 Norte 14 Noroeste 0 -- -- 82
2020-05-08 07:00:00 11.3 4 Norte 12 Norte 0 -- -- 87
2020-05-08 06:00:00 11.4 0 Calma 4 Este 0 -- -- 87
2020-05-08 05:00:00 11.8 0 Calma 7 Este 0 -- -- 87
2020-05-08 04:00:00 12.3 0 Calma 4 Sudeste 0 -- -- 84
2020-05-08 03:00:00 13 3 Nordeste 8 Nordeste 0 -- -- 84
2020-05-08 02:00:00 13.3 0 Calma 5 Nordeste 0 -- -- 82
2020-05-08 01:00:00 14.1 0 Calma 5 Nordeste 0 -- -- 83
2020-05-08 00:00:00 14.8 0 Calma 4 Nordeste 0 -- -- 81
2020-05-07 23:00:00 15.8 0 Calma 4 Nordeste 0 -- -- 78
2020-05-07 22:00:00 17.3 0 Calma 6 Norte 0 -- -- 73
2020-05-07 21:00:00 20.7 0 Calma 5 Nordeste 0 -- -- 63
2020-05-07 20:00:00 23.4 3 Norte 6 Oeste 0 -- -- 53
2020-05-07 19:00:00 26 4 Oeste 7 Sudeste 0 -- -- 41
2020-05-07 18:00:00 25.3 0 Calma 8 Este 0 -- -- 46
2020-05-07 17:00:00 25.5 4 Sur 17 Sur 0 -- -- 41
2020-05-07 16:00:00 25.8 10 Sur 22 Este 0 -- -- 43
2020-05-07 15:00:00 25.2 9 Sudoeste 15 Sur 0 -- -- 47
2020-05-07 14:00:00 24.3 9 Sur 16 Sur 0 -- -- 47
2020-05-07 13:00:00 24.3 10 Sur 20 Oeste 0 -- -- 44
2020-05-07 12:00:00 23.5 3 Sudeste 7 Sur 0 -- -- 55
2020-05-07 11:00:00 21.9 0 Calma 10 Oeste 0 -- -- 58
2020-05-07 10:00:00 19 0 Calma 5 Sudoeste 0 -- -- 72
2020-05-07 09:00:00 16.5 2 Este 6 Sudoeste 0 -- -- 77
2020-05-07 08:00:00 14.9 0 Calma 5 Nordeste 0 -- -- 77
2020-05-07 07:00:00 14.9 0 Calma 6 Nordeste 0 -- -- 74
2020-05-07 06:00:00 14.7 2 Noroeste 12 Sudoeste 0 -- -- 72
2020-05-07 05:00:00 14.1 2 Este 5 Nordeste 0 -- -- 66
2020-05-07 04:00:00 15.4 3 Norte 8 Nordeste 0 -- -- 60
2020-05-07 03:00:00 18.7 4 Nordeste 15 Nordeste 0 -- -- 48
2020-05-07 02:00:00 18.9 8 Noroeste 17 Norte 0 -- -- 41
2020-05-07 01:00:00 18.3 5 Noroeste 14 Oeste 0 -- -- 46
2020-05-07 00:00:00 17.6 6 Noroeste 12 Noroeste 0 -- -- 51
2020-05-06 23:00:00 17.3 4 Noroeste 12 Noroeste 0 -- -- 59
2020-05-06 22:00:00 17 0 Calma 10 Noroeste 0 -- -- 62
2020-05-06 21:00:00 20.6 5 Norte 9 Noroeste 0 -- -- 52
2020-05-06 20:00:00 25.3 5 Sudoeste 15 Sudoeste 0 -- -- 43
2020-05-06 19:00:00 27.4 4 Sudoeste 11 Este 0 -- -- 35
2020-05-06 18:00:00 26.4 7 Sudoeste 16 Sur 0 -- -- 35
2020-05-06 17:00:00 26.1 6 Sudoeste 15 Oeste 0 -- -- 39
2020-05-06 16:00:00 25.5 3 Sudoeste 12 Sudoeste 0 -- -- 36
2020-05-06 15:00:00 25 8 Sur 27 Sudoeste 0 -- -- 40
2020-05-06 14:00:00 23.9 6 Este 17 Este 0 -- -- 39
2020-05-06 13:00:00 23 4 Norte 14 Este 0 -- -- 34
2020-05-06 12:00:00 22.4 6 Este 17 Nordeste 0 -- -- 39
2020-05-06 11:00:00 21.3 9 Nordeste 17 Nordeste 0 -- -- 42
2020-05-06 10:00:00 18.9 6 Noroeste 12 Oeste 0 -- -- 48
2020-05-06 09:00:00 17.2 4 Norte 13 Norte 0 -- -- 54
2020-05-06 08:00:00 12.9 6 Norte 13 Noroeste 0 -- -- 61
2020-05-06 07:00:00 12.8 5 Norte 10 Norte 0 -- -- 60
2020-05-06 06:00:00 13.2 5 Norte 11 Norte 0 -- -- 58
2020-05-06 05:00:00 13.7 5 Norte 13 Noroeste 0 -- -- 57
2020-05-06 04:00:00 14.1 6 Norte 14 Noroeste 0 -- -- 55
2020-05-06 03:00:00 14.3 5 Norte 13 Norte 0 -- -- 55
2020-05-06 02:00:00 14.6 5 Norte 10 Norte 0 -- -- 55
2020-05-06 01:00:00 14.6 5 Norte 12 Nordeste 0 -- -- 58
2020-05-06 00:00:00 14.7 3 Nordeste 10 Norte 0 -- -- 64
2020-05-05 23:00:00 15.8 8 Nordeste 13 Norte 0 -- -- 62
2020-05-05 22:00:00 16.4 4 Norte 10 Norte 0 -- -- 64
2020-05-05 21:00:00 20.1 3 Norte 11 Oeste 0 -- -- 56
2020-05-05 20:00:00 24.2 5 Oeste 14 Noroeste 0 -- -- 47
2020-05-05 19:00:00 25.3 5 Oeste 19 Oeste 0 -- -- 42
2020-05-05 18:00:00 25.3 6 Oeste 21 Noroeste 0 -- -- 43
2020-05-05 17:00:00 24.4 7 Sur 14 Sudoeste 0 -- -- 36
2020-05-05 16:00:00 23.4 4 Oeste 19 Sudoeste 0 -- -- 40
2020-05-05 15:00:00 23.1 9 Sudoeste 24 Sudeste 0 -- -- 45
2020-05-05 14:00:00 22.3 8 Sur 16 Sur 0 -- -- 49
2020-05-05 13:00:00 21 6 Sur 17 Sur 0 -- -- 64
2020-05-05 12:00:00 19.7 6 Sudeste 13 Sur 0 -- -- 70
2020-05-05 11:00:00 18.5 6 Sur 13 Sur 0 -- -- 74
2020-05-05 10:00:00 16.4 5 Sur 8 Sur 0 -- -- 80
2020-05-05 09:00:00 14.1 2 Oeste 4 Oeste 0 -- -- 90
2020-05-05 08:00:00 12.7 0 Calma 4 Sur 0 -- -- 90
2020-05-05 07:00:00 12.3 0 Calma 4 Nordeste 0 -- -- 91
2020-05-05 06:00:00 12.5 0 Calma 4 Nordeste 0 -- -- 88
2020-05-05 05:00:00 12 0 Calma 4 Nordeste 0 -- -- 87
2020-05-05 04:00:00 11.5 0 Calma 5 Nordeste 0 -- -- 85
2020-05-05 03:00:00 11.9 0 Calma 5 Nordeste 0 -- -- 82
2020-05-05 02:00:00 12.4 0 Calma 7 Este 0 -- -- 75
2020-05-05 01:00:00 13.1 3 Este 7 Nordeste 0 -- -- 67
2020-05-05 00:00:00 14.4 0 Calma 4 Nordeste 0 -- -- 62
2020-05-04 23:00:00 18 0 Calma 29 Sudoeste 0 -- -- 45
2020-05-04 22:00:00 19.8 6 Sur 25 Oeste 0 -- -- 35
2020-05-04 21:00:00 22.3 9 Sudoeste 40 Sur 0 -- -- 37
2020-05-04 20:00:00 24 13 Sudoeste 34 Sudoeste 0 -- -- 38
2020-05-04 19:00:00 25.8 17 Sudoeste 43 Oeste 0 -- -- 41
2020-05-04 18:00:00 26.3 19 Sudoeste 49 Sur 0 -- -- 42
2020-05-04 17:00:00 27.2 19 Sudoeste 39 Sudoeste 0 -- -- 41
2020-05-04 16:00:00 28 26 Sudoeste 42 Oeste 0 -- -- 34
2020-05-04 15:00:00 27.4 18 Sudoeste 35 Sudoeste 0 -- -- 41
2020-05-04 14:00:00 28.1 20 Sudoeste 33 Sudoeste 0 -- -- 34
2020-05-04 13:00:00 28.7 10 Sur 21 Sur 0 -- -- 35
2020-05-04 12:00:00 27.3 8 Sur 18 Sudoeste 0 -- -- 38
2020-05-04 11:00:00 26.5 9 Sur 14 Sur 0 -- -- 41
2020-05-04 10:00:00 23.7 3 Sudeste 5 Sudeste 0 -- -- 49
2020-05-04 09:00:00 17.6 0 Calma 6 Noroeste 0 -- -- 70
2020-05-04 08:00:00 14.2 2 Nordeste 4 Este 0 -- -- 80
2020-05-04 07:00:00 13.8 0 Calma 3 Nordeste 0 -- -- 76
2020-05-04 06:00:00 14.4 0 Calma 4 Este 0 -- -- 75
2020-05-04 05:00:00 14.6 0 Calma 4 Norte 0 -- -- 69
2020-05-04 04:00:00 14.5 0 Calma 6 Nordeste 0 -- -- 74
2020-05-04 03:00:00 14.5 0 Calma 4 Este 0 -- -- 71
2020-05-04 02:00:00 15.1 0 Calma 3 Nordeste 0 -- -- 74
2020-05-04 01:00:00 15.5 0 Calma 4 Nordeste 0 -- -- 73
2020-05-04 00:00:00 16 0 Calma 4 Este 0 -- -- 71
2020-05-03 23:00:00 16.9 0 Calma 3 Nordeste 0 -- -- 68
2020-05-03 22:00:00 19 0 Calma 4 Nordeste 0 -- -- 64
2020-05-03 21:00:00 22.4 0 Calma 4 Nordeste 0 -- -- 52
2020-05-03 20:00:00 27.3 2 Sur 12 Sur 0 -- -- 37
2020-05-03 19:00:00 28.6 7 Sur 18 Sudeste 0 -- -- 30
2020-05-03 18:00:00 28.9 7 Sur 19 Sudoeste 0 -- -- 29
2020-05-03 17:00:00 28.7 10 Sur 28 Sudoeste 0 -- -- 29
2020-05-03 16:00:00 28.6 9 Sur 24 Oeste 0 -- -- 32
2020-05-03 15:00:00 28 11 Sur 28 Sur 0 -- -- 29
2020-05-03 14:00:00 27.5 7 Sur 21 Sudeste 0 -- -- 33
2020-05-03 13:00:00 26.5 5 Sudeste 20 Sudeste 0 -- -- 37
2020-05-03 12:00:00 25.7 9 Sur 19 Sudoeste 0 -- -- 40
2020-05-03 11:00:00 24.3 3 Sur 8 Sudeste 0 -- -- 54
2020-05-03 10:00:00 21.9 0 Calma 5 Sudeste 0 -- -- 66
2020-05-03 09:00:00 15.8 0 Calma 5 Nordeste 0 -- -- 85
2020-05-03 08:00:00 11.9 0 Calma 4 Nordeste 0 -- -- 92
2020-05-03 07:00:00 11.9 0 Calma 3 Este 0 -- -- 91
2020-05-03 06:00:00 12.4 0 Calma 2 Nordeste 0 -- -- 90
2020-05-03 05:00:00 13 0 Calma 4 Nordeste 0 -- -- 90
2020-05-03 04:00:00 13.3 0 Calma 4 Este 0 -- -- 87
2020-05-03 03:00:00 13.5 0 Calma 3 Nordeste 0 -- -- 89
2020-05-03 02:00:00 13.8 0 Calma 5 Este 0 -- -- 88
2020-05-03 01:00:00 14.3 0 Calma 4 Nordeste 0 -- -- 84
2020-05-03 00:00:00 15.1 0 Calma 8 Nordeste 0 -- -- 82
2020-05-02 23:00:00 16.3 0 Calma 4 Sudoeste 0 -- -- 77
2020-05-02 22:00:00 17.9 0 Calma 9 Nordeste 0 -- -- 72
2020-05-02 21:00:00 21 2 Norte 8 Oeste 0 -- -- 62
2020-05-02 20:00:00 25.3 0 Calma 13 Sudoeste 0 -- -- 49
2020-05-02 19:00:00 26.9 7 Sudoeste 18 Sudoeste 0 -- -- 38
2020-05-02 18:00:00 26.9 6 Sudoeste 20 Sudoeste 0 -- -- 41
2020-05-02 17:00:00 26.9 8 Sudoeste 22 Sudoeste 0 -- -- 36
2020-05-02 16:00:00 26.4 8 Sudoeste 23 Sur 0 -- -- 42
2020-05-02 15:00:00 25.7 6 Sudoeste 15 Sudoeste 0 -- -- 47
2020-05-02 14:00:00 24.5 9 Sudeste 21 Sudoeste 0 -- -- 50
2020-05-02 13:00:00 23.5 8 Sudoeste 15 Sudoeste 0 -- -- 57
2020-05-02 12:00:00 22.2 5 Sudeste 12 Sur 0 -- -- 65
2020-05-02 11:00:00 20.9 5 Sudeste 12 Sudeste 0 -- -- 67
2020-05-02 10:00:00 18.3 4 Sudeste 6 Este 0 -- -- 78
2020-05-02 09:00:00 14.2 0 Calma 4 Oeste 0 -- -- 95
2020-05-02 08:00:00 10.7 0 Calma 5 Este 0 -- -- 96
2020-05-02 07:00:00 10.7 0 Calma 8 Este 0 -- -- 95
2020-05-02 06:00:00 11 2 Nordeste 4 Este 0 -- -- 95
2020-05-02 05:00:00 11.4 0 Calma 4 Nordeste 0 -- -- 94
2020-05-02 04:00:00 11.9 0 Calma 4 Nordeste 0 -- -- 93
2020-05-02 03:00:00 12 0 Calma 3 Oeste 0 -- -- 93
2020-05-02 02:00:00 12.4 0 Calma 5 Noroeste 0 -- -- 92
2020-05-02 01:00:00 12.8 5 Norte 10 Noroeste 0 -- -- 92
2020-05-02 00:00:00 13.4 0 Calma 3 Este 0 -- -- 88
2020-05-01 23:00:00 14.4 0 Calma 4 Norte 0 -- -- 85
2020-05-01 22:00:00 16.5 4 Norte 9 Norte 0 -- -- 77
2020-05-01 21:00:00 18.3 3 Norte 9 Oeste 0 -- -- 71
2020-05-01 20:00:00 21.9 3 Oeste 16 Sudoeste 0 -- -- 59
2020-05-01 19:00:00 21.6 5 Oeste 21 Oeste 0 -- -- 58
2020-05-01 18:00:00 21.9 14 Sudoeste 27 Sudoeste 0 -- -- 57
2020-05-01 17:00:00 21.8 14 Sudoeste 30 Oeste 0 -- -- 57
2020-05-01 16:00:00 22 13 Oeste 27 Oeste 0 -- -- 56
2020-05-01 15:00:00 21.3 12 Oeste 25 Sudoeste 0 -- -- 61
2020-05-01 14:00:00 20.6 10 Sudoeste 22 Sudoeste 0 -- -- 65
2020-05-01 13:00:00 19.7 12 Sudoeste 18 Sudoeste 0 -- -- 64
2020-05-01 12:00:00 18.7 6 Oeste 22 Sur 0 -- -- 65
2020-05-01 11:00:00 17.2 9 Sudoeste 24 Sudoeste 0 -- -- 68
2020-05-01 10:00:00 15.7 5 Sur 7 Sudeste 0 -- -- 74
2020-05-01 09:00:00 11.2 0 Calma 5 Nordeste 0 -- -- 94
2020-05-01 08:00:00 7.8 0 Calma 3 Nordeste 0 -- -- 95
2020-05-01 07:00:00 7.9 0 Calma 4 Este 0 -- -- 94
2020-05-01 06:00:00 8 2 Nordeste 4 Este 0 -- -- 93
2020-05-01 05:00:00 8.8 0 Calma 5 Este 0 -- -- 92
2020-05-01 04:00:00 9.8 0 Calma 3 Este 0 -- -- 91
2020-05-01 03:00:00 10.6 0 Calma 5 Este 0 -- -- 90
2020-05-01 02:00:00 10.7 0 Calma 5 Norte 0 -- -- 90
2020-05-01 01:00:00 9.7 0 Calma 8 Noroeste 0 -- -- 90
2020-05-01 00:00:00 9.8 0 Calma 4 Nordeste 0 -- -- 88
2020-04-30 23:00:00 11.3 0 Calma 7 Noroeste 0 -- -- 81
2020-04-30 22:00:00 12.3 3 Norte 7 Norte 0 -- -- 78
2020-04-30 21:00:00 14.5 3 Sudeste 17 Noroeste 0 -- -- 69
2020-04-30 20:00:00 16.5 8 Oeste 22 Noroeste 0 -- -- 62
2020-04-30 19:00:00 17.5 8 Oeste 22 Noroeste 0 -- -- 60
2020-04-30 18:00:00 18.2 9 Oeste 27 Sudoeste 0 -- -- 55
2020-04-30 17:00:00 17.5 12 Sudoeste 26 Sudoeste 0 -- -- 57
2020-04-30 16:00:00 17.2 8 Oeste 26 Oeste 0 -- -- 58
2020-04-30 15:00:00 16.4 12 Sudoeste 27 Sudoeste 0 -- -- 65
2020-04-30 14:00:00 16 9 Sudoeste 27 Noroeste 0 -- -- 65
2020-04-30 13:00:00 14.6 9 Oeste 23 Oeste 0 -- -- 72
2020-04-30 12:00:00 13 4 Noroeste 25 Oeste 0 -- -- 79
2020-04-30 11:00:00 12.3 4 Oeste 16 Oeste 0.4 -- -- 90
2020-04-30 10:00:00 11.6 3 Nordeste 19 Sudeste 0.6 -- -- 92
2020-04-30 09:00:00 10.9 5 Este 22 Sudeste 0 -- -- 93
2020-04-30 08:00:00 10.2 5 Este 22 Sudoeste 0 -- -- 93
2020-04-30 07:00:00 9.7 0 Calma 7 Nordeste 0 -- -- 92
2020-04-30 06:00:00 9.3 0 Calma 12 Sur 0 -- -- 91
2020-04-30 05:00:00 10.4 3 Este 10 Este 0 -- -- 87
2020-04-30 04:00:00 11.9 6 Oeste 23 Oeste 0 -- -- 78
2020-04-30 03:00:00 12.1 5 Oeste 19 Oeste 0 -- -- 79
2020-04-30 02:00:00 12.9 8 Oeste 38 Oeste 0 -- -- 75
2020-04-30 01:00:00 13.6 6 Oeste 32 Oeste 0 -- -- 74
2020-04-30 00:00:00 14.1 5 Este 13 Este 0 -- -- 71
2020-04-29 23:00:00 15 3 Nordeste 17 Sudeste 0 -- -- 69
2020-04-29 22:00:00 15.5 4 Sur 20 Oeste 0 -- -- 68
2020-04-29 21:00:00 16.5 7 Oeste 25 Oeste 0 -- -- 55
2020-04-29 20:00:00 17.9 6 Noroeste 19 Noroeste 0 -- -- 52
2020-04-29 19:00:00 18.5 8 Oeste 23 Sudoeste 0 -- -- 48
2020-04-29 18:00:00 19.6 9 Noroeste 28 Noroeste 0 -- -- 47
2020-04-29 17:00:00 18.9 10 Oeste 28 Sudoeste 0 -- -- 48
2020-04-29 16:00:00 18.6 12 Sudoeste 28 Oeste 0 -- -- 51
2020-04-29 15:00:00 18 9 Sudoeste 28 Noroeste 0 -- -- 58
2020-04-29 14:00:00 17.1 10 Sudoeste 24 Sudoeste 0 -- -- 53
2020-04-29 13:00:00 17 8 Noroeste 27 Oeste 0 -- -- 53
2020-04-29 12:00:00 16.5 12 Sudoeste 27 Oeste 0 -- -- 56
2020-04-29 11:00:00 15.4 6 Este 14 Sudeste 0 -- -- 64
2020-04-29 10:00:00 14.8 3 Sudeste 11 Oeste 0 -- -- 62
2020-04-29 09:00:00 10.5 0 Calma 5 Nordeste 0 -- -- 84
2020-04-29 08:00:00 6.9 2 Nordeste 6 Nordeste 0 -- -- 92
2020-04-29 07:00:00 6.7 2 Nordeste 4 Nordeste 0 -- -- 91
2020-04-29 06:00:00 6.8 0 Calma 6 Nordeste 0 -- -- 90
2020-04-29 05:00:00 7.2 2 Norte 7 Nordeste 0 -- -- 89
2020-04-29 04:00:00 7.7 3 Nordeste 6 Nordeste 0 -- -- 87
2020-04-29 03:00:00 7.7 3 Nordeste 5 Nordeste 0 -- -- 86
2020-04-29 02:00:00 6.7 0 Calma 3 Este 0 -- -- 89
2020-04-29 01:00:00 7.2 0 Calma 4 Norte 0 -- -- 88
2020-04-29 00:00:00 8 0 Calma 4 Nordeste 0 -- -- 84
2020-04-28 23:00:00 9.6 3 Norte 6 Norte 0 -- -- 76
2020-04-28 22:00:00 10.3 3 Norte 6 Norte 0 -- -- 73
2020-04-28 21:00:00 12.6 3 Nordeste 12 Oeste 0 -- -- 66
2020-04-28 20:00:00 15.8 5 Oeste 25 Oeste 0 -- -- 53
2020-04-28 19:00:00 16.9 6 Oeste 21 Oeste 0 -- -- 52
2020-04-28 18:00:00 17.1 8 Oeste 24 Oeste 0 -- -- 50
2020-04-28 17:00:00 16.7 14 Sudoeste 27 Oeste 0 -- -- 55
2020-04-28 16:00:00 16.5 10 Oeste 30 Noroeste 0 -- -- 54
2020-04-28 15:00:00 15.4 8 Oeste 21 Sudoeste 0 -- -- 58
2020-04-28 14:00:00 15 8 Oeste 26 Oeste 0 -- -- 61
2020-04-28 13:00:00 14.3 8 Oeste 27 Oeste 0 -- -- 64
2020-04-28 12:00:00 13.9 12 Sudoeste 21 Sudoeste 0 -- -- 69
2020-04-28 11:00:00 13 8 Sur 13 Sur 0 -- -- 81
2020-04-28 10:00:00 10.8 2 Sur 5 Sur 0 -- -- 94
2020-04-28 09:00:00 9.1 0 Calma 4 Noroeste 0 -- -- 97
2020-04-28 08:00:00 8.1 0 Calma 8 Norte 0 -- -- 97
2020-04-28 07:00:00 7.5 0 Calma 4 Sudoeste 0 -- -- 97
2020-04-28 06:00:00 7 0 Calma 3 Sudoeste 0 -- -- 96
2020-04-28 05:00:00 6.8 0 Calma 3 Nordeste 0 -- -- 95
2020-04-28 04:00:00 7.5 0 Calma 0 Calma 0.2 -- -- 95
2020-04-28 03:00:00 7.9 0 Calma 5 Nordeste 0 -- -- 94
2020-04-28 02:00:00 9.5 0 Calma 6 Este 0 -- -- 93
2020-04-28 01:00:00 10.2 0 Calma 14 Noroeste 0 -- -- 94
2020-04-28 00:00:00 10 2 Sudeste 8 Oeste 0 -- -- 95
2020-04-27 23:00:00 9.4 2 Nordeste 4 Nordeste 0 -- -- 94
2020-04-27 22:00:00 9.8 0 Calma 8 Este 0 -- -- 91
2020-04-27 21:00:00 10.5 3 Sudeste 12 Sudoeste 1.6 -- -- 89
2020-04-27 20:00:00 12.1 8 Sur 22 Sudeste 0 -- -- 80
2020-04-27 19:00:00 13 8 Sur 15 Sudeste 0 -- -- 77
2020-04-27 18:00:00 13 4 Sudeste 12 Sudoeste 0 -- -- 71
2020-04-27 17:00:00 13.1 7 Sur 17 Sur 0.2 -- -- 76
2020-04-27 16:00:00 11.9 8 Sur 23 Sudoeste 0.4 -- -- 84
2020-04-27 15:00:00 9.4 14 Sudoeste 28 Sudoeste 4 -- -- 85
2020-04-27 14:00:00 10.3 6 Sudoeste 22 Sudoeste 2.8 -- -- 86
2020-04-27 13:00:00 11.6 9 Sudoeste 15 Sudoeste 0.2 -- -- 82
2020-04-27 12:00:00 12.4 6 Sur 14 Sudoeste 0 -- -- 77
2020-04-27 11:00:00 11.4 6 Sudeste 15 Sur 0 -- -- 85
2020-04-27 10:00:00 10.7 5 Sur 8 Sudoeste 0 -- -- 91
2020-04-27 09:00:00 10 3 Sur 10 Sur 0 -- -- 94
2020-04-27 08:00:00 9.8 4 Sur 13 Sudoeste 0 -- -- 95
2020-04-27 07:00:00 10 5 Sur 10 Sur 0 -- -- 95
2020-04-27 06:00:00 10.2 3 Sudoeste 7 Sur 0 -- -- 95
2020-04-27 05:00:00 10.1 0 Calma 3 Este 0 -- -- 93
2020-04-27 04:00:00 10.3 2 Nordeste 4 Nordeste 0 -- -- 93
2020-04-27 03:00:00 9.9 0 Calma 4 Este 0 -- -- 93
2020-04-27 02:00:00 9.6 0 Calma 4 Nordeste 0 -- -- 92
2020-04-27 01:00:00 9.4 0 Calma 4 Sudoeste 0 -- -- 92
2020-04-27 00:00:00 9.5 0 Calma 3 Nordeste 0 -- -- 88